Naples, FL (34113)

9:29 PM EDT on October 24, 2014 (GMT -0400)
Kings Lake | Change Station
CLOSE
Current Station
Personal Weather Station
Location: Naples, FL
Elevation: 13 ft
Nearby Weather Stations

Elev 13 ft 26.12 °N, 81.74 °W | Updated 3 seconds ago

Clear
Clear
74.9 °F
Feels Like 77 °F
N
1.8
Wind Variable Wind from NE
Gusts 5.6 mph

Today
High -- | Low -- °F
--% Chance of Precip.
Yesterday
High -- | Low -- °F
Precip. -- in
7:30 AM 6:51 PM
New Moon, 1% visible
Pressure 29.87 in
Visibility 10.0 miles
Clouds Clear
Heat Index 77 °F
Dew Point 60 °F
Humidity 60%
Rainfall 0.00 in
Snow Depth Not available.
UV 0 out of 12
Pollen .40 out of 12
Air Quality Not available.
Flu Activity Local Activity
METAR KAPF 250053Z 04005KT 10SM CLR 23/17 A2987 RMK AO2 SLP114 T02330172

More Conditions Fewer Conditions

Pressure 29.87 in
Visibility 10.0 miles
Clouds Clear
Heat Index 77 °F
Dew Point 60 °F
Humidity 60%
Rainfall 0.00 in
Snow Depth Not available.
UV 0 out of 12
Pollen .40 out of 12
Air Quality Not available.
Flu Activity Local Activity
METAR KAPF 250053Z 04005KT 10SM CLR 23/17 A2987 RMK AO2 SLP114 T02330172

More Conditions Fewer Conditions

10-Day Weather Forecast

Almanac

Astronomy

Oct. 24, 2014 Rise Set
Actual Time 7:30 AM EDT 6:51 PM EDT
Civil Twilight 7:07 AM EDT 7:14 PM EDT
Nautical Twilight 6:40 AM EDT 7:41 PM EDT
Astronomical Twilight 6:13 AM EDT 8:08 PM EDT
Moon 8:05 AM EDT (10/24) 7:34 PM EDT (10/24)
Length of Visible Light 12h 07m
Length of Day
11h 20m
Tomorrow will be 1m 25s shorter.
New Moon, 1% of the Moon is Illuminated
Today
New Moon
Oct 30
First Quarter
Nov 6
Full
Nov 14
Last Quarter
Nov 22
New

Today's Extremes

State Highs State Lows

Community

WunderPhotos

Upload Photos

1,764,741 photos uploaded!

WunderBlogs® & News

Nearby

Snow Depth

Station Depth Elevation
No new snow has been reported.

Earthquake Activity

City Distance Mag. Time & Date
No recent earthquake activity has been reported nearby.
Minimum magnitude displayed is 2.5.

Coastal Water Temperatures

Place Temperature
Naples, FL 82.0 °F

Nearby Weather Stations